Time;durP1;ratioP1;P1;durP2;ratioP2;P2;SDS_P1;SDS_P2;PMS_P1;PMS_P2;Temp;Humidity;BMP_temperature;BMP_pressure;BME280_temperature;BME280_humidity;BME280_pressure;Samples;Min_cycle;Max_cycle;Signal;HPM_P1;HPM_P2
2022/10/05 00:02:20;;;;;;;9.05;4.63;;;14.50;99.90;;;;;;10041836;28;20531;-61
2022/10/05 00:07:22;;;;;;;9.02;4.40;;;14.30;99.90;;;;;;10035796;28;20062;-62
2022/10/05 00:12:14;;;;;;;8.70;4.50;;;14.30;99.90;;;;;;10041820;28;20038;-62
2022/10/05 00:17:05;;;;;;;7.47;4.90;;;14.30;99.90;;;;;;10043760;28;20025;-63
2022/10/05 00:22:05;;;;;;;6.22;4.07;;;14.20;99.90;;;;;;10052466;28;20622;-63
2022/10/05 00:26:55;;;;;;;9.23;4.82;;;14.10;99.90;;;;;;10038299;28;20045;-63
2022/10/05 00:31:46;;;;;;;7.78;5.25;;;14.00;99.90;;;;;;10045068;28;20508;-63
2022/10/05 00:36:38;;;;;;;8.48;5.28;;;14.00;99.90;;;;;;10045746;28;20494;-62
2022/10/05 00:42:03;;;;;;;7.53;3.97;;;14.00;99.90;;;;;;10042142;28;20029;-63
2022/10/05 00:47:27;;;;;;;6.25;4.05;;;13.70;99.90;;;;;;10041655;28;20033;-62
2022/10/05 00:52:36;;;;;;;7.75;4.55;;;13.50;99.90;;;;;;10020612;28;20436;-62
2022/10/05 00:57:47;;;;;;;6.75;4.65;;;13.50;99.90;;;;;;10032005;28;20111;-61
2022/10/05 01:02:56;;;;;;;8.77;5.50;;;13.60;99.90;;;;;;10029657;28;20396;-61
2022/10/05 01:08:08;;;;;;;7.75;4.97;;;13.60;99.90;;;;;;10040897;28;20030;-61
2022/10/05 01:13:05;;;;;;;8.18;4.68;;;13.60;99.90;;;;;;10040066;28;20072;-61
2022/10/05 01:18:22;;;;;;;7.72;4.72;;;13.60;99.90;;;;;;10034858;28;20017;-62
2022/10/05 01:23:15;;;;;;;7.22;4.82;;;13.60;99.90;;;;;;10031002;28;20021;-61
2022/10/05 01:28:30;;;;;;;7.38;4.30;;;13.50;99.90;;;;;;10048419;28;20084;-62
2022/10/05 01:33:45;;;;;;;7.88;4.63;;;13.50;99.90;;;;;;10046989;28;20130;-61
2022/10/05 01:38:48;;;;;;;8.90;4.43;;;13.50;99.90;;;;;;10046476;28;20102;-62
2022/10/05 01:43:59;;;;;;;6.72;4.65;;;13.50;99.90;;;;;;10033729;28;20489;-61
2022/10/05 01:49:10;;;;;;;8.38;5.07;;;13.40;99.90;;;;;;10053588;28;20095;-61
2022/10/05 01:54:19;;;;;;;6.35;3.70;;;13.40;99.90;;;;;;10043065;28;20492;-62
2022/10/05 01:59:20;;;;;;;6.05;4.10;;;13.40;99.90;;;;;;10045468;28;20508;-63
2022/10/05 02:04:26;;;;;;;8.05;4.45;;;13.30;99.90;;;;;;10044501;28;20066;-63
2022/10/05 02:09:25;;;;;;;9.00;4.60;;;13.30;99.90;;;;;;10040459;28;20049;-62
2022/10/05 02:14:21;;;;;;;13.38;4.32;;;13.30;99.90;;;;;;10038311;28;20045;-62
2022/10/05 02:19:24;;;;;;;6.55;4.05;;;13.20;99.90;;;;;;10046835;28;20029;-63
2022/10/05 02:24:25;;;;;;;10.15;4.95;;;13.10;99.90;;;;;;10022618;28;20033;-62
2022/10/05 02:29:19;;;;;;;10.25;5.18;;;13.00;99.90;;;;;;10027124;28;20045;-61
2022/10/05 02:34:25;;;;;;;6.57;3.92;;;13.00;99.90;;;;;;10029342;28;20499;-61
2022/10/05 02:39:44;;;;;;;8.15;4.93;;;13.00;99.90;;;;;;10019870;28;20010;-62
2022/10/05 02:44:38;;;;;;;8.75;4.55;;;13.00;99.90;;;;;;10040569;28;20535;-61
2022/10/05 02:49:39;;;;;;;7.78;4.50;;;13.00;99.90;;;;;;10047923;28;20032;-62
2022/10/05 02:55:08;;;;;;;8.18;4.60;;;12.90;99.90;;;;;;10042062;28;20088;-61
2022/10/05 03:00:07;;;;;;;6.50;4.57;;;12.90;99.90;;;;;;10054680;28;20373;-61
2022/10/05 03:05:36;;;;;;;7.43;4.78;;;12.90;99.90;;;;;;10045355;28;20515;-61
2022/10/05 03:10:44;;;;;;;9.70;5.30;;;12.90;99.90;;;;;;10006006;28;20038;-62
2022/10/05 03:16:23;;;;;;;8.82;4.40;;;12.90;99.90;;;;;;10041892;28;20495;-62
2022/10/05 03:21:52;;;;;;;10.65;5.25;;;13.00;99.90;;;;;;9998062;28;20176;-61
2022/10/05 03:27:25;;;;;;;6.65;3.95;;;13.00;99.90;;;;;;10055317;28;20091;-62
2022/10/05 03:32:18;;;;;;;8.70;4.55;;;12.90;99.90;;;;;;10045741;28;20128;-61
2022/10/05 03:37:26;;;;;;;5.93;4.80;;;12.90;99.90;;;;;;10046157;28;20029;-62
2022/10/05 03:42:46;;;;;;;8.40;5.18;;;12.80;99.90;;;;;;10052971;28;20058;-62
2022/10/05 03:47:51;;;;;;;6.90;4.50;;;12.80;99.90;;;;;;10030901;28;20041;-62
2022/10/05 03:52:50;;;;;;;8.80;4.82;;;12.80;99.90;;;;;;10042979;28;20134;-61
2022/10/05 03:57:43;;;;;;;7.65;4.88;;;12.70;99.90;;;;;;10051798;28;20032;-61
2022/10/05 04:02:43;;;;;;;7.57;5.03;;;12.70;99.90;;;;;;10054839;28;20036;-61
2022/10/05 04:07:58;;;;;;;7.47;4.35;;;12.50;99.90;;;;;;10046046;28;20337;-63
2022/10/05 04:13:01;;;;;;;10.20;5.40;;;12.40;99.90;;;;;;10032290;28;20037;-62
2022/10/05 04:17:59;;;;;;;11.70;4.65;;;12.30;99.90;;;;;;10051420;28;20084;-62
2022/10/05 04:23:08;;;;;;;7.57;4.95;;;12.00;99.90;;;;;;10041113;28;20037;-63
2022/10/05 04:28:17;;;;;;;6.65;4.18;;;12.10;99.90;;;;;;10046594;28;20152;-63
2022/10/05 04:33:11;;;;;;;7.20;4.18;;;11.90;99.90;;;;;;10049371;28;20092;-61
2022/10/05 04:38:23;;;;;;;9.90;4.28;;;11.90;99.90;;;;;;10043753;28;20030;-62
2022/10/05 04:43:48;;;;;;;6.03;3.53;;;11.90;99.90;;;;;;10037105;28;20439;-63
2022/10/05 04:49:08;;;;;;;7.32;4.53;;;12.00;99.90;;;;;;10050202;28;20029;-62
2022/10/05 04:54:29;;;;;;;6.47;4.05;;;12.00;99.90;;;;;;10046993;28;20057;-62
2022/10/05 04:59:27;;;;;;;6.60;3.83;;;12.00;99.90;;;;;;10047413;28;20057;-63
2022/10/05 05:04:37;;;;;;;5.47;3.47;;;12.00;99.90;;;;;;10043555;28;20279;-63
2022/10/05 05:09:57;;;;;;;6.68;3.88;;;12.10;99.90;;;;;;10043793;28;20033;-62
2022/10/05 05:14:54;;;;;;;6.07;4.07;;;12.00;99.90;;;;;;10035424;28;20041;-63
2022/10/05 05:20:08;;;;;;;6.43;5.10;;;12.00;99.90;;;;;;10038974;28;20117;-62
2022/10/05 05:25:34;;;;;;;7.43;5.30;;;12.10;99.90;;;;;;10021796;28;20072;-63
2022/10/05 05:30:43;;;;;;;8.07;4.18;;;12.10;99.90;;;;;;9951039;28;20111;-62
2022/10/05 05:36:00;;;;;;;7.63;4.57;;;12.10;99.90;;;;;;9991199;28;20100;-63
2022/10/05 05:41:10;;;;;;;5.95;4.05;;;12.00;99.90;;;;;;10001536;28;20096;-63
2022/10/05 05:46:09;;;;;;;5.25;3.67;;;11.90;99.90;;;;;;9973177;28;20488;-62
2022/10/05 05:51:19;;;;;;;6.70;4.03;;;11.80;99.90;;;;;;10011796;28;20018;-62
2022/10/05 05:56:24;;;;;;;7.78;4.57;;;12.00;99.90;;;;;;10000849;28;20440;-64
2022/10/05 06:01:27;;;;;;;8.85;4.70;;;12.10;99.90;;;;;;10012054;28;20296;-63
2022/10/05 06:06:20;;;;;;;8.15;4.38;;;12.10;99.90;;;;;;10008431;28;20395;-62
2022/10/05 06:11:49;;;;;;;7.57;5.00;;;12.10;99.90;;;;;;10012912;28;20176;-63
2022/10/05 06:16:53;;;;;;;11.35;5.20;;;12.00;99.90;;;;;;9975278;28;20508;-62
2022/10/05 06:21:55;;;;;;;7.57;4.38;;;12.00;99.90;;;;;;10015592;28;20022;-62
2022/10/05 06:27:12;;;;;;;6.85;5.40;;;12.00;99.90;;;;;;10015465;28;20026;-63
2022/10/05 06:32:23;;;;;;;5.80;4.28;;;12.00;99.90;;;;;;10012612;28;20382;-62
2022/10/05 06:37:25;;;;;;;8.63;4.90;;;12.20;99.90;;;;;;10007065;28;20183;-62
2022/10/05 06:42:52;;;;;;;7.32;4.10;;;12.20;99.90;;;;;;9995244;28;20081;-61
2022/10/05 06:47:53;;;;;;;9.00;4.65;;;12.40;99.90;;;;;;9933678;28;20193;-60
2022/10/05 06:53:14;;;;;;;7.13;4.15;;;12.60;99.90;;;;;;10005884;28;20065;-61
2022/10/05 06:58:35;;;;;;;6.03;3.95;;;12.50;99.90;;;;;;10005659;28;20468;-61
2022/10/05 07:03:55;;;;;;;6.40;4.20;;;12.60;99.90;;;;;;9998488;28;20480;-60
2022/10/05 07:09:13;;;;;;;8.80;4.70;;;12.80;99.90;;;;;;10015045;28;20022;-61
2022/10/05 07:14:13;;;;;;;6.82;4.55;;;12.70;99.90;;;;;;10007117;28;20042;-60
2022/10/05 07:19:14;;;;;;;8.43;4.80;;;12.70;99.90;;;;;;10004873;28;20100;-62
2022/10/05 07:24:27;;;;;;;6.22;3.95;;;12.80;99.90;;;;;;10011755;28;20030;-61
2022/10/05 07:29:23;;;;;;;5.20;3.53;;;13.00;99.90;;;;;;10017086;28;20045;-63
2022/10/05 07:34:20;;;;;;;7.25;4.18;;;13.10;99.90;;;;;;10053836;28;20083;-62
2022/10/05 07:39:22;;;;;;;5.80;3.42;;;13.20;99.90;;;;;;10043255;28;20392;-62
2022/10/05 07:44:27;;;;;;;8.63;5.00;;;13.30;99.90;;;;;;10045344;28;20180;-65
2022/10/05 07:49:44;;;;;;;11.02;4.38;;;13.40;99.90;;;;;;10052710;28;20458;-64
2022/10/05 07:54:46;;;;;;;5.82;4.18;;;13.50;99.90;;;;;;10033028;28;20064;-62
2022/10/05 08:00:03;;;;;;;6.50;3.83;;;13.60;99.90;;;;;;10049875;28;20026;-62
2022/10/05 08:05:09;;;;;;;9.18;4.65;;;13.80;99.90;;;;;;10048954;28;20038;-61
2022/10/05 08:10:16;;;;;;;8.77;4.73;;;14.00;99.90;;;;;;10048753;28;20040;-60
2022/10/05 08:15:15;;;;;;;7.20;4.38;;;14.10;99.90;;;;;;10042585;28;20048;-62
2022/10/05 08:20:30;;;;;;;4.97;3.60;;;14.30;99.90;;;;;;10033843;28;20120;-61
2022/10/05 08:25:25;;;;;;;8.30;4.03;;;14.50;99.90;;;;;;10036526;28;20032;-60
2022/10/05 08:30:16;;;;;;;6.77;3.97;;;14.70;99.90;;;;;;10033568;28;20041;-63
2022/10/05 08:35:20;;;;;;;6.13;4.10;;;14.80;99.90;;;;;;10040006;28;20049;-61
2022/10/05 08:40:50;;;;;;;7.32;4.07;;;15.10;99.90;;;;;;10037786;28;20083;-61
2022/10/05 08:45:44;;;;;;;5.35;4.28;;;15.30;99.90;;;;;;10037188;28;20060;-60
2022/10/05 08:51:12;;;;;;;7.93;3.95;;;15.50;99.90;;;;;;10054642;28;20419;-61
2022/10/05 08:56:20;;;;;;;5.78;3.85;;;15.80;99.90;;;;;;10047228;28;20171;-61
2022/10/05 09:01:28;;;;;;;4.80;3.40;;;16.00;99.90;;;;;;10053293;28;20037;-61
2022/10/05 09:06:30;;;;;;;10.40;5.18;;;16.20;99.90;;;;;;10037612;28;20023;-61
2022/10/05 09:11:55;;;;;;;5.32;3.65;;;16.50;99.90;;;;;;10033741;28;20126;-63
2022/10/05 09:17:12;;;;;;;5.00;2.90;;;16.70;99.90;;;;;;10021177;28;20076;-62
2022/10/05 09:22:18;;;;;;;3.60;2.63;;;16.90;99.90;;;;;;10038319;28;20052;-62
2022/10/05 09:27:23;;;;;;;3.90;2.25;;;17.00;99.90;;;;;;10052167;28;20053;-62
2022/10/05 09:32:32;;;;;;;4.03;2.33;;;17.20;99.90;;;;;;10048056;28;20467;-63
2022/10/05 09:37:35;;;;;;;3.15;2.78;;;17.40;99.90;;;;;;10048866;28;20014;-61
2022/10/05 09:42:31;;;;;;;3.17;2.28;;;17.60;99.90;;;;;;10040991;28;20067;-62
2022/10/05 09:47:50;;;;;;;7.38;2.47;;;17.80;99.90;;;;;;10041263;28;20499;-63
2022/10/05 09:53:06;;;;;;;6.78;3.10;;;18.00;99.90;;;;;;10027649;28;20535;-60
2022/10/05 09:58:20;;;;;;;2.00;1.75;;;18.10;99.90;;;;;;10015111;28;20041;-61
2022/10/05 10:03:23;;;;;;;3.35;2.05;;;18.20;99.90;;;;;;10044139;28;20026;-60
2022/10/05 10:08:19;;;;;;;5.70;2.83;;;18.30;99.90;;;;;;10042522;28;20140;-61
2022/10/05 10:13:34;;;;;;;3.38;2.00;;;18.30;99.90;;;;;;10057407;28;20037;-61
2022/10/05 10:18:49;;;;;;;3.47;2.10;;;18.50;99.90;;;;;;10054503;28;20148;-61
2022/10/05 10:23:57;;;;;;;4.47;2.58;;;18.70;99.90;;;;;;10057093;28;20033;-60
2022/10/05 10:28:57;;;;;;;3.35;1.80;;;18.90;99.90;;;;;;10052179;28;20073;-62
2022/10/05 10:34:02;;;;;;;2.08;1.88;;;19.10;99.90;;;;;;10053291;28;20063;-60
2022/10/05 10:38:57;;;;;;;4.47;2.13;;;19.20;99.90;;;;;;10054403;28;20072;-61
2022/10/05 10:44:25;;;;;;;1.95;1.42;;;19.40;99.90;;;;;;10049254;28;20099;-62
2022/10/05 10:49:53;;;;;;;3.17;1.90;;;19.60;99.90;;;;;;10048024;28;20052;-62
2022/10/05 10:55:05;;;;;;;3.38;2.08;;;19.70;99.90;;;;;;10041159;28;20056;-63
2022/10/05 11:00:05;;;;;;;2.65;1.95;;;19.70;99.90;;;;;;10046352;28;20076;-61
2022/10/05 11:05:13;;;;;;;4.90;2.33;;;19.90;99.90;;;;;;10053362;28;20033;-61
2022/10/05 11:10:52;;;;;;;3.67;1.80;;;20.00;99.90;;;;;;10048309;28;20510;-60
2022/10/05 11:16:26;;;;;;;2.67;1.90;;;20.20;99.90;;;;;;10012722;28;20049;-65
2022/10/05 11:21:33;;;;;;;2.22;1.83;;;20.30;99.90;;;;;;9974426;28;20062;-65
2022/10/05 11:27:02;;;;;;;2.97;1.65;;;20.30;99.90;;;;;;10038345;28;20024;-62
2022/10/05 11:32:23;;;;;;;3.75;1.77;;;20.50;99.90;;;;;;10002949;28;20049;-63
2022/10/05 11:37:30;;;;;;;3.10;1.98;;;20.60;99.90;;;;;;10039902;28;20091;-62
2022/10/05 11:42:54;;;;;;;2.33;1.58;;;20.80;99.90;;;;;;10043438;28;20053;-61
2022/10/05 11:48:14;;;;;;;1.50;1.20;;;21.00;99.90;;;;;;10055037;28;20140;-61
2022/10/05 11:53:16;;;;;;;2.65;1.77;;;21.30;99.90;;;;;;10045658;28;20415;-63
2022/10/05 11:58:20;;;;;;;3.10;1.70;;;21.30;99.90;;;;;;10049962;28;20061;-61
2022/10/05 12:03:37;;;;;;;5.13;2.10;;;21.50;99.90;;;;;;10055536;28;20040;-62
2022/10/05 12:08:33;;;;;;;4.85;2.22;;;21.80;99.90;;;;;;10043648;28;20040;-61
2022/10/05 12:13:38;;;;;;;1.95;1.35;;;21.80;99.90;;;;;;10041846;28;20492;-60
2022/10/05 12:18:28;;;;;;;3.17;2.03;;;22.10;99.90;;;;;;10043606;28;20256;-61
2022/10/05 12:23:52;;;;;;;3.28;1.80;;;22.40;99.90;;;;;;10042959;28;20275;-60
2022/10/05 12:29:23;;;;;;;3.47;1.42;;;22.90;99.90;;;;;;10049445;28;20045;-61
2022/10/05 12:34:26;;;;;;;2.50;1.48;;;23.30;99.90;;;;;;10039844;28;20083;-62
2022/10/05 12:39:49;;;;;;;3.80;1.70;;;23.60;99.80;;;;;;10048928;28;20022;-62
2022/10/05 12:45:35;;;;;;;3.10;2.05;;;24.00;99.40;;;;;;10121389;28;20387;-61
2022/10/05 12:50:37;;;;;;;3.33;1.27;;;24.20;99.40;;;;;;9998026;28;20041;-62
2022/10/05 12:55:58;;;;;;;2.28;1.45;;;24.50;99.70;;;;;;10083862;28;20043;-61
2022/10/05 13:01:03;;;;;;;2.90;1.40;;;24.80;99.20;;;;;;10092627;28;20037;-61
2022/10/05 13:06:02;;;;;;;3.60;1.50;;;25.20;99.20;;;;;;10104617;28;21109;-61
2022/10/05 13:11:07;;;;;;;3.75;1.50;;;25.50;99.20;;;;;;10115561;28;20048;-60
2022/10/05 13:16:36;;;;;;;4.50;1.83;;;25.80;98.80;;;;;;10103069;28;20017;-60
2022/10/05 13:21:44;;;;;;;4.35;1.50;;;26.10;98.20;;;;;;10121937;28;20037;-60
2022/10/05 13:26:39;;;;;;;2.70;1.25;;;26.60;97.80;;;;;;10108733;28;20059;-60
2022/10/05 13:31:42;;;;;;;1.52;1.10;;;26.70;97.80;;;;;;10111376;28;20033;-60
2022/10/05 13:36:41;;;;;;;5.18;1.20;;;27.30;97.50;;;;;;10113261;28;20132;-61
2022/10/05 13:41:54;;;;;;;1.23;1.00;;;28.10;96.20;;;;;;10099166;28;20150;-60
2022/10/05 13:46:44;;;;;;;1.88;1.17;;;28.30;95.00;;;;;;10116000;28;20060;-64
2022/10/05 13:51:53;;;;;;;2.22;1.15;;;28.70;94.20;;;;;;10108545;28;20018;-61
2022/10/05 13:56:50;;;;;;;1.65;1.25;;;29.20;92.70;;;;;;10081030;28;20079;-61
2022/10/05 14:01:45;;;;;;;2.03;0.98;;;29.80;91.80;;;;;;10087520;28;20065;-60
2022/10/05 14:06:37;;;;;;;2.03;1.25;;;29.80;90.80;;;;;;10086591;28;20024;-61
2022/10/05 14:11:35;;;;;;;3.75;0.85;;;30.10;89.20;;;;;;10076917;28;20029;-61
2022/10/05 14:16:26;;;;;;;2.72;1.27;;;30.40;85.00;;;;;;10072703;28;20030;-61
2022/10/05 14:22:03;;;;;;;1.63;1.00;;;30.90;83.00;;;;;;10064456;28;20056;-62
2022/10/05 14:26:54;;;;;;;1.48;0.90;;;31.50;77.00;;;;;;10045263;28;20045;-61
2022/10/05 14:31:54;;;;;;;;;;;32.30;76.10;;;;;;10054748;28;20177;-61
2022/10/05 14:36:45;;;;;;;1.83;1.23;;;33.30;70.30;;;;;;10058263;28;19917;-61
2022/10/05 14:41:44;;;;;;;1.47;0.90;;;33.90;69.70;;;;;;10062774;28;20049;-61
2022/10/05 14:46:35;;;;;;;1.90;1.20;;;34.90;66.00;;;;;;10072623;28;20429;-60
2022/10/05 14:51:30;;;;;;;2.92;0.80;;;35.00;63.00;;;;;;10077802;28;20086;-63
2022/10/05 14:56:46;;;;;;;2.22;0.88;;;34.90;60.80;;;;;;10074045;28;20056;-60
2022/10/05 15:01:52;;;;;;;2.58;1.10;;;35.10;58.10;;;;;;10062959;28;20041;-60
2022/10/05 15:07:10;;;;;;;2.53;0.95;;;36.00;56.90;;;;;;10057237;28;20029;-62
2022/10/05 15:12:02;;;;;;;2.17;0.88;;;35.40;54.20;;;;;;10057153;28;20040;-59
2022/10/05 15:16:57;;;;;;;0.98;0.70;;;35.70;54.30;;;;;;10056847;28;20100;-59
2022/10/05 15:21:51;;;;;;;1.85;0.90;;;35.50;52.90;;;;;;10056498;28;20037;-61
2022/10/05 15:26:59;;;;;;;1.92;0.98;;;35.30;52.50;;;;;;10065000;28;20059;-60
2022/10/05 15:32:17;;;;;;;2.65;1.02;;;35.30;51.00;;;;;;10046667;28;20116;-58
2022/10/05 15:37:31;;;;;;;2.40;0.90;;;35.60;50.00;;;;;;10049920;28;20022;-58
2022/10/05 15:42:29;;;;;;;1.30;0.80;;;34.70;49.20;;;;;;10056018;28;20504;-60
2022/10/05 15:47:42;;;;;;;1.33;0.88;;;34.20;49.20;;;;;;10051396;28;20606;-61
2022/10/05 15:52:43;;;;;;;2.35;1.00;;;33.90;49.60;;;;;;10051099;28;20037;-62
2022/10/05 15:57:55;;;;;;;2.28;1.00;;;33.90;49.40;;;;;;10050993;28;20124;-61
2022/10/05 16:03:16;;;;;;;1.17;0.70;;;33.70;49.20;;;;;;10048994;28;20037;-62
2022/10/05 16:13:32;;;;;;;2.55;1.20;;;28.70;52.00;;;;;;10053578;28;20446;-61
2022/10/05 16:19:05;;;;;;;2.30;1.50;;;26.60;54.20;;;;;;10055578;28;20096;-62
2022/10/05 16:24:27;;;;;;;2.78;1.00;;;25.70;54.90;;;;;;10046805;28;20128;-63
2022/10/05 16:29:31;;;;;;;1.50;0.90;;;25.20;55.20;;;;;;10053045;28;20048;-60
2022/10/05 16:34:50;;;;;;;1.47;1.00;;;24.70;55.60;;;;;;10056805;28;20030;-58
2022/10/05 16:40:22;;;;;;;2.33;1.00;;;24.50;56.10;;;;;;10056866;28;20033;-62
2022/10/05 16:45:34;;;;;;;2.65;1.20;;;24.20;56.40;;;;;;10052175;28;20118;-62
2022/10/05 16:50:47;;;;;;;1.67;1.08;;;24.00;56.90;;;;;;10056913;28;20052;-63
2022/10/05 16:55:43;;;;;;;3.03;1.23;;;23.80;57.50;;;;;;10060344;28;20029;-62
2022/10/05 17:00:57;;;;;;;4.22;1.90;;;23.50;58.10;;;;;;10049553;28;20030;-66
2022/10/05 17:06:15;;;;;;;4.23;1.80;;;23.40;59.10;;;;;;10055578;28;20554;-62
2022/10/05 17:11:36;;;;;;;11.48;4.90;;;23.10;59.50;;;;;;10053901;28;20025;-60
2022/10/05 17:16:45;;;;;;;7.22;3.97;;;22.90;60.30;;;;;;10046274;28;20117;-59
2022/10/05 17:21:53;;;;;;;5.13;2.80;;;22.70;61.30;;;;;;10048580;28;20033;-59
2022/10/05 17:27:21;;;;;;;5.10;2.88;;;22.60;61.90;;;;;;10049509;28;20524;-61
2022/10/05 17:32:14;;;;;;;6.55;3.60;;;22.60;62.50;;;;;;10053523;28;20172;-60
2022/10/05 17:37:26;;;;;;;12.02;6.55;;;22.40;62.90;;;;;;10053014;28;20029;-60
2022/10/05 17:42:28;;;;;;;10.63;4.72;;;22.20;64.00;;;;;;10055657;28;20079;-59
2022/10/05 17:47:54;;;;;;;10.05;5.10;;;22.00;64.70;;;;;;10065263;28;20812;-61
2022/10/05 17:58:32;;;;;;;12.95;5.28;;;21.80;67.10;;;;;;10063266;28;20148;-61
2022/10/05 18:03:39;;;;;;;8.13;3.92;;;21.60;66.80;;;;;;10059406;28;20602;-60
2022/10/05 18:08:36;;;;;;;5.88;3.17;;;21.60;67.70;;;;;;10059047;28;20029;-59
2022/10/05 18:13:37;;;;;;;10.68;4.93;;;21.50;68.20;;;;;;10062288;28;20049;-58
2022/10/05 18:18:32;;;;;;;5.60;2.80;;;21.50;68.80;;;;;;10048978;28;20117;-59
2022/10/05 18:23:25;;;;;;;5.00;2.85;;;21.40;69.20;;;;;;10046547;28;20200;-60
2022/10/05 18:28:21;;;;;;;6.93;2.80;;;21.30;69.70;;;;;;10062278;28;20060;-60
2022/10/05 18:33:52;;;;;;;3.95;2.92;;;21.30;70.10;;;;;;10058121;28;20130;-60
2022/10/05 18:38:50;;;;;;;10.10;3.58;;;21.30;70.80;;;;;;10056858;28;20068;-59
2022/10/05 18:43:43;;;;;;;4.72;2.30;;;21.30;70.90;;;;;;10065220;28;20102;-59
2022/10/05 18:48:43;;;;;;;15.75;8.10;;;21.30;71.20;;;;;;10054335;28;20561;-59
2022/10/05 18:53:57;;;;;;;22.15;10.45;;;21.20;71.40;;;;;;10055586;28;20029;-60
2022/10/05 18:59:02;;;;;;;12.63;6.43;;;21.00;71.90;;;;;;10052200;28;20024;-59
2022/10/05 19:04:03;;;;;;;7.13;3.80;;;20.90;73.00;;;;;;10052690;28;20419;-59
2022/10/05 19:09:34;;;;;;;15.82;6.88;;;20.80;72.90;;;;;;10052529;28;20565;-59
2022/10/05 19:14:31;;;;;;;14.50;7.03;;;20.80;73.60;;;;;;10057148;28;20108;-60
2022/10/05 19:19:53;;;;;;;8.82;4.28;;;20.70;73.70;;;;;;10057133;28;20033;-60
2022/10/05 19:25:06;;;;;;;6.95;4.00;;;20.70;74.40;;;;;;10056878;28;20412;-61
2022/10/05 19:30:20;;;;;;;9.15;3.45;;;20.60;74.70;;;;;;10056135;28;20428;-58
2022/10/05 19:35:10;;;;;;;4.30;2.53;;;20.60;75.20;;;;;;10048974;28;20033;-61
2022/10/05 19:40:28;;;;;;;5.15;2.50;;;20.40;75.50;;;;;;10057910;28;20028;-60
2022/10/05 19:45:25;;;;;;;3.17;1.80;;;20.40;76.30;;;;;;10056512;28;20310;-59
2022/10/05 19:50:31;;;;;;;3.83;2.20;;;20.40;76.50;;;;;;10054595;28;20026;-59
2022/10/05 19:55:30;;;;;;;9.18;3.92;;;20.30;77.10;;;;;;10064853;28;20407;-62
2022/10/05 20:00:25;;;;;;;6.65;2.88;;;20.30;77.40;;;;;;10054715;28;20025;-60
2022/10/05 20:05:17;;;;;;;3.88;2.17;;;20.20;78.10;;;;;;10054191;28;20499;-60
2022/10/05 20:10:29;;;;;;;8.18;2.88;;;20.10;78.70;;;;;;10053198;28;20112;-61
2022/10/05 20:20:42;;;;;;;5.47;2.20;;;19.90;80.00;;;;;;10050428;28;20380;-59
2022/10/05 20:25:36;;;;;;;5.97;3.40;;;19.90;80.70;;;;;;10049812;28;20233;-61
2022/10/05 20:30:27;;;;;;;6.45;2.78;;;19.80;81.40;;;;;;10049514;28;20044;-60
2022/10/05 20:35:22;;;;;;;5.57;3.60;;;19.70;82.10;;;;;;10049741;28;20120;-60
2022/10/05 20:40:13;;;;;;;5.95;3.38;;;19.70;83.20;;;;;;10049928;28;20364;-59
2022/10/05 20:45:05;;;;;;;7.22;2.53;;;19.70;83.50;;;;;;10053235;28;20027;-59
2022/10/05 20:49:56;;;;;;;4.70;2.40;;;19.50;84.30;;;;;;10053636;28;20025;-59
2022/10/05 20:54:47;;;;;;;5.38;2.60;;;19.50;84.90;;;;;;10062156;28;20784;-61
2022/10/05 20:59:37;;;;;;;4.15;2.40;;;19.40;85.70;;;;;;10050022;28;20033;-59
2022/10/05 21:04:34;;;;;;;4.30;2.40;;;19.40;86.40;;;;;;10050965;28;20034;-61
2022/10/05 21:09:41;;;;;;;4.03;2.08;;;19.30;87.00;;;;;;10059814;28;20111;-59
2022/10/05 21:14:33;;;;;;;4.82;1.75;;;19.20;87.90;;;;;;10061387;28;20029;-61
2022/10/05 21:19:24;;;;;;;2.55;1.83;;;19.20;88.30;;;;;;10073205;28;20094;-62
2022/10/05 21:24:16;;;;;;;5.90;2.15;;;19.30;88.80;;;;;;10060151;28;20097;-66
2022/10/05 21:29:07;;;;;;;4.40;1.90;;;19.30;89.20;;;;;;10076414;28;20036;-66
2022/10/05 21:33:58;;;;;;;4.07;2.10;;;19.20;89.80;;;;;;10060905;28;20048;-66
2022/10/05 21:38:50;;;;;;;3.92;1.63;;;19.30;90.00;;;;;;10059573;28;20032;-66
2022/10/05 21:43:42;;;;;;;2.30;1.55;;;19.20;90.30;;;;;;10058909;28;20252;-67
2022/10/05 21:48:36;;;;;;;4.65;2.00;;;19.10;90.50;;;;;;10055101;28;20551;-67
2022/10/05 21:53:31;;;;;;;2.28;1.20;;;19.10;90.70;;;;;;10056465;28;20021;-64
2022/10/05 21:58:25;;;;;;;3.35;1.30;;;19.10;91.00;;;;;;10054504;28;20032;-67
2022/10/05 22:03:16;;;;;;;2.10;1.50;;;19.00;91.20;;;;;;10054675;28;20577;-68
2022/10/05 22:08:06;;;;;;;2.33;1.77;;;19.00;91.50;;;;;;10055084;28;20014;-66
2022/10/05 22:13:01;;;;;;;3.53;1.45;;;19.00;91.70;;;;;;10058281;28;20120;-66
2022/10/05 22:17:52;;;;;;;2.77;1.50;;;18.90;92.10;;;;;;10067652;28;20479;-61
2022/10/05 22:22:43;;;;;;;2.17;1.95;;;18.90;92.30;;;;;;10057753;28;20041;-69
2022/10/05 22:27:34;;;;;;;3.38;1.60;;;18.90;92.60;;;;;;10060474;28;20104;-67
2022/10/05 22:32:25;;;;;;;4.43;2.83;;;18.90;92.90;;;;;;10058244;28;20483;-67
2022/10/05 22:37:16;;;;;;;4.80;1.83;;;18.80;93.20;;;;;;10063896;28;20021;-67
2022/10/05 22:42:07;;;;;;;2.83;1.88;;;18.70;93.60;;;;;;10058667;28;20049;-66
2022/10/05 22:46:57;;;;;;;2.28;1.55;;;18.70;93.90;;;;;;10058605;28;20063;-67
2022/10/05 22:51:48;;;;;;;4.55;1.38;;;18.70;94.20;;;;;;10067986;28;20028;-66
2022/10/05 22:56:38;;;;;;;2.55;1.92;;;18.70;94.50;;;;;;10067090;28;20021;-66
2022/10/05 23:01:29;;;;;;;3.67;1.80;;;18.70;94.70;;;;;;10056802;28;20041;-66
2022/10/05 23:06:20;;;;;;;3.08;1.65;;;18.70;95.00;;;;;;10058228;28;20204;-67
2022/10/05 23:11:20;;;;;;;2.78;1.67;;;18.70;95.30;;;;;;10056380;28;20095;-68
2022/10/05 23:16:13;;;;;;;2.38;1.20;;;18.70;95.60;;;;;;10053962;28;20106;-68
2022/10/05 23:21:08;;;;;;;2.50;1.35;;;18.80;95.60;;;;;;10054155;28;20556;-68
2022/10/05 23:25:59;;;;;;;5.38;1.98;;;18.80;95.90;;;;;;10050296;28;20029;-67
2022/10/05 23:30:50;;;;;;;2.60;1.50;;;18.80;96.10;;;;;;10051228;28;20107;-66
2022/10/05 23:35:40;;;;;;;4.57;2.10;;;18.70;96.30;;;;;;10052396;28;20422;-66
2022/10/05 23:40:31;;;;;;;2.67;1.40;;;18.70;96.50;;;;;;10051579;28;20073;-67
2022/10/05 23:45:22;;;;;;;3.17;1.90;;;18.70;96.70;;;;;;10053882;28;20086;-66
2022/10/05 23:50:12;;;;;;;3.35;2.08;;;18.60;96.90;;;;;;10052900;28;20502;-66
2022/10/05 23:55:04;;;;;;;2.03;1.48;;;18.50;97.10;;;;;;10064773;28;20026;-66
2022/10/05 23:59:55;;;;;;;2.53;1.80;;;18.40;97.30;;;;;;10055245;28;20036;-66
